sensor_id;sensor_type;location;lat;lon;timestamp;P1;durP1;ratioP1;P2;durP2;ratioP2
75021;SDS011;63583;49.976;20.182;2023-03-16T00:02:06;10.10;;;4.80;;
75021;SDS011;63583;49.976;20.182;2023-03-16T00:04:33;11.93;;;4.97;;
75021;SDS011;63583;49.976;20.182;2023-03-16T00:07:05;11.25;;;4.50;;
75021;SDS011;63583;49.976;20.182;2023-03-16T00:09:32;14.93;;;5.03;;
75021;SDS011;63583;49.976;20.182;2023-03-16T00:11:58;11.20;;;5.10;;
75021;SDS011;63583;49.976;20.182;2023-03-16T00:14:27;13.57;;;4.72;;
75021;SDS011;63583;49.976;20.182;2023-03-16T00:16:54;8.93;;;4.85;;
75021;SDS011;63583;49.976;20.182;2023-03-16T00:19:20;12.60;;;4.18;;
75021;SDS011;63583;49.976;20.182;2023-03-16T00:21:49;5.88;;;3.63;;
75021;SDS011;63583;49.976;20.182;2023-03-16T00:24:16;12.02;;;3.97;;
75021;SDS011;63583;49.976;20.182;2023-03-16T00:26:43;7.72;;;3.03;;
75021;SDS011;63583;49.976;20.182;2023-03-16T00:31:38;6.78;;;3.17;;
75021;SDS011;63583;49.976;20.182;2023-03-16T00:34:04;5.20;;;3.05;;
75021;SDS011;63583;49.976;20.182;2023-03-16T00:36:29;3.83;;;2.42;;
75021;SDS011;63583;49.976;20.182;2023-03-16T00:38:58;7.75;;;2.90;;
75021;SDS011;63583;49.976;20.182;2023-03-16T00:41:23;5.63;;;2.70;;
75021;SDS011;63583;49.976;20.182;2023-03-16T00:43:49;4.85;;;3.20;;
75021;SDS011;63583;49.976;20.182;2023-03-16T00:46:16;7.07;;;3.42;;
75021;SDS011;63583;49.976;20.182;2023-03-16T00:48:43;7.63;;;4.63;;
75021;SDS011;63583;49.976;20.182;2023-03-16T00:51:11;4.28;;;2.97;;
75021;SDS011;63583;49.976;20.182;2023-03-16T00:53:39;5.53;;;2.60;;
75021;SDS011;63583;49.976;20.182;2023-03-16T00:56:06;4.53;;;2.70;;
75021;SDS011;63583;49.976;20.182;2023-03-16T00:58:33;3.67;;;2.17;;
75021;SDS011;63583;49.976;20.182;2023-03-16T01:01:02;5.93;;;2.53;;
75021;SDS011;63583;49.976;20.182;2023-03-16T01:03:32;8.60;;;2.90;;
75021;SDS011;63583;49.976;20.182;2023-03-16T01:06:05;7.40;;;3.25;;
75021;SDS011;63583;49.976;20.182;2023-03-16T01:08:35;6.95;;;2.47;;
75021;SDS011;63583;49.976;20.182;2023-03-16T01:11:03;9.73;;;2.72;;
75021;SDS011;63583;49.976;20.182;2023-03-16T01:13:32;6.22;;;3.47;;
75021;SDS011;63583;49.976;20.182;2023-03-16T01:15:58;7.65;;;2.25;;
75021;SDS011;63583;49.976;20.182;2023-03-16T01:18:25;4.38;;;3.08;;
75021;SDS011;63583;49.976;20.182;2023-03-16T01:20:51;3.88;;;2.88;;
75021;SDS011;63583;49.976;20.182;2023-03-16T01:23:18;10.77;;;4.70;;
75021;SDS011;63583;49.976;20.182;2023-03-16T01:25:44;5.07;;;3.22;;
75021;SDS011;63583;49.976;20.182;2023-03-16T01:28:18;6.50;;;3.38;;
75021;SDS011;63583;49.976;20.182;2023-03-16T01:30:45;8.82;;;3.58;;
75021;SDS011;63583;49.976;20.182;2023-03-16T01:33:11;6.03;;;3.17;;
75021;SDS011;63583;49.976;20.182;2023-03-16T01:35:37;9.45;;;4.00;;
75021;SDS011;63583;49.976;20.182;2023-03-16T01:38:03;10.43;;;4.47;;
75021;SDS011;63583;49.976;20.182;2023-03-16T01:40:28;6.47;;;2.90;;
75021;SDS011;63583;49.976;20.182;2023-03-16T01:43:02;9.18;;;3.22;;
75021;SDS011;63583;49.976;20.182;2023-03-16T01:48:20;6.32;;;2.78;;
75021;SDS011;63583;49.976;20.182;2023-03-16T01:50:48;7.22;;;3.67;;
75021;SDS011;63583;49.976;20.182;2023-03-16T01:53:17;7.90;;;3.75;;
75021;SDS011;63583;49.976;20.182;2023-03-16T01:55:43;9.02;;;3.78;;
75021;SDS011;63583;49.976;20.182;2023-03-16T01:58:10;9.43;;;4.20;;
75021;SDS011;63583;49.976;20.182;2023-03-16T02:03:07;6.82;;;2.85;;
75021;SDS011;63583;49.976;20.182;2023-03-16T02:05:39;10.27;;;3.35;;
75021;SDS011;63583;49.976;20.182;2023-03-16T02:08:09;5.15;;;2.88;;
75021;SDS011;63583;49.976;20.182;2023-03-16T02:10:34;6.35;;;3.08;;
75021;SDS011;63583;49.976;20.182;2023-03-16T02:13:01;6.55;;;3.33;;
75021;SDS011;63583;49.976;20.182;2023-03-16T02:15:28;9.27;;;3.75;;
75021;SDS011;63583;49.976;20.182;2023-03-16T02:17:53;6.47;;;4.43;;
75021;SDS011;63583;49.976;20.182;2023-03-16T02:31:12;6.70;;;3.58;;
75021;SDS011;63583;49.976;20.182;2023-03-16T02:33:39;6.07;;;3.47;;
75021;SDS011;63583;49.976;20.182;2023-03-16T02:36:06;3.95;;;3.15;;
75021;SDS011;63583;49.976;20.182;2023-03-16T02:38:32;13.07;;;4.47;;
75021;SDS011;63583;49.976;20.182;2023-03-16T02:40:59;5.78;;;3.97;;
75021;SDS011;63583;49.976;20.182;2023-03-16T02:43:34;6.88;;;3.08;;
75021;SDS011;63583;49.976;20.182;2023-03-16T02:46:02;6.38;;;3.65;;
75021;SDS011;63583;49.976;20.182;2023-03-16T02:51:13;6.30;;;2.63;;
75021;SDS011;63583;49.976;20.182;2023-03-16T02:53:39;14.50;;;4.57;;
75021;SDS011;63583;49.976;20.182;2023-03-16T02:56:05;8.52;;;3.72;;
75021;SDS011;63583;49.976;20.182;2023-03-16T02:58:31;6.45;;;3.72;;
75021;SDS011;63583;49.976;20.182;2023-03-16T03:00:57;4.43;;;2.17;;
75021;SDS011;63583;49.976;20.182;2023-03-16T03:03:23;7.28;;;2.88;;
75021;SDS011;63583;49.976;20.182;2023-03-16T03:05:49;9.55;;;4.88;;
75021;SDS011;63583;49.976;20.182;2023-03-16T03:08:15;6.25;;;3.20;;
75021;SDS011;63583;49.976;20.182;2023-03-16T03:10:40;4.95;;;2.65;;
75021;SDS011;63583;49.976;20.182;2023-03-16T03:13:06;13.95;;;3.60;;
75021;SDS011;63583;49.976;20.182;2023-03-16T03:15:32;4.28;;;2.75;;
75021;SDS011;63583;49.976;20.182;2023-03-16T03:17:59;7.38;;;3.42;;
75021;SDS011;63583;49.976;20.182;2023-03-16T03:20:25;7.35;;;3.38;;
75021;SDS011;63583;49.976;20.182;2023-03-16T03:22:51;14.82;;;3.45;;
75021;SDS011;63583;49.976;20.182;2023-03-16T03:25:17;2.92;;;1.88;;
75021;SDS011;63583;49.976;20.182;2023-03-16T03:27:43;7.95;;;4.22;;
75021;SDS011;63583;49.976;20.182;2023-03-16T03:30:13;7.18;;;3.72;;
75021;SDS011;63583;49.976;20.182;2023-03-16T03:32:42;3.83;;;2.80;;
75021;SDS011;63583;49.976;20.182;2023-03-16T03:35:09;10.02;;;4.18;;
75021;SDS011;63583;49.976;20.182;2023-03-16T03:37:37;11.07;;;3.20;;
75021;SDS011;63583;49.976;20.182;2023-03-16T03:40:07;7.82;;;3.85;;
75021;SDS011;63583;49.976;20.182;2023-03-16T03:42:35;8.43;;;3.17;;
75021;SDS011;63583;49.976;20.182;2023-03-16T03:45:01;4.30;;;2.75;;
75021;SDS011;63583;49.976;20.182;2023-03-16T03:47:27;7.25;;;4.30;;
75021;SDS011;63583;49.976;20.182;2023-03-16T03:49:52;7.65;;;3.67;;
75021;SDS011;63583;49.976;20.182;2023-03-16T03:52:18;10.32;;;3.97;;
75021;SDS011;63583;49.976;20.182;2023-03-16T03:54:43;8.30;;;3.42;;
75021;SDS011;63583;49.976;20.182;2023-03-16T03:57:09;6.20;;;4.30;;
75021;SDS011;63583;49.976;20.182;2023-03-16T03:59:35;9.23;;;5.25;;
75021;SDS011;63583;49.976;20.182;2023-03-16T04:02:07;14.18;;;4.32;;
75021;SDS011;63583;49.976;20.182;2023-03-16T04:04:33;6.82;;;3.10;;
75021;SDS011;63583;49.976;20.182;2023-03-16T04:06:59;6.00;;;3.83;;
75021;SDS011;63583;49.976;20.182;2023-03-16T04:09:25;9.05;;;5.13;;
75021;SDS011;63583;49.976;20.182;2023-03-16T04:11:50;7.50;;;4.28;;
75021;SDS011;63583;49.976;20.182;2023-03-16T04:14:16;8.85;;;3.53;;
75021;SDS011;63583;49.976;20.182;2023-03-16T04:16:42;12.20;;;3.97;;
75021;SDS011;63583;49.976;20.182;2023-03-16T04:19:09;10.93;;;5.60;;
75021;SDS011;63583;49.976;20.182;2023-03-16T04:21:36;9.15;;;3.30;;
75021;SDS011;63583;49.976;20.182;2023-03-16T04:24:02;7.88;;;3.42;;
75021;SDS011;63583;49.976;20.182;2023-03-16T04:26:30;8.23;;;3.60;;
75021;SDS011;63583;49.976;20.182;2023-03-16T04:28:56;12.35;;;4.93;;
75021;SDS011;63583;49.976;20.182;2023-03-16T04:31:22;8.13;;;3.53;;
75021;SDS011;63583;49.976;20.182;2023-03-16T04:33:48;7.07;;;4.00;;
75021;SDS011;63583;49.976;20.182;2023-03-16T04:36:19;7.65;;;4.00;;
75021;SDS011;63583;49.976;20.182;2023-03-16T04:38:51;17.88;;;4.18;;
75021;SDS011;63583;49.976;20.182;2023-03-16T04:41:17;4.82;;;3.67;;
75021;SDS011;63583;49.976;20.182;2023-03-16T04:43:42;8.85;;;3.60;;
75021;SDS011;63583;49.976;20.182;2023-03-16T04:46:09;9.80;;;5.15;;
75021;SDS011;63583;49.976;20.182;2023-03-16T04:48:34;13.90;;;5.97;;
75021;SDS011;63583;49.976;20.182;2023-03-16T04:51:01;11.75;;;5.10;;
75021;SDS011;63583;49.976;20.182;2023-03-16T04:53:28;8.48;;;4.63;;
75021;SDS011;63583;49.976;20.182;2023-03-16T04:55:54;6.03;;;3.03;;
75021;SDS011;63583;49.976;20.182;2023-03-16T04:58:20;7.50;;;3.38;;
75021;SDS011;63583;49.976;20.182;2023-03-16T05:00:47;8.38;;;4.13;;
75021;SDS011;63583;49.976;20.182;2023-03-16T05:03:13;9.85;;;5.15;;
75021;SDS011;63583;49.976;20.182;2023-03-16T05:05:39;8.18;;;4.13;;
75021;SDS011;63583;49.976;20.182;2023-03-16T05:08:05;5.35;;;3.47;;
75021;SDS011;63583;49.976;20.182;2023-03-16T05:10:31;10.18;;;4.13;;
75021;SDS011;63583;49.976;20.182;2023-03-16T05:12:58;10.38;;;5.00;;
75021;SDS011;63583;49.976;20.182;2023-03-16T05:15:24;7.43;;;4.88;;
75021;SDS011;63583;49.976;20.182;2023-03-16T05:17:50;7.30;;;3.88;;
75021;SDS011;63583;49.976;20.182;2023-03-16T05:20:16;9.80;;;5.22;;
75021;SDS011;63583;49.976;20.182;2023-03-16T05:22:42;8.77;;;4.45;;
75021;SDS011;63583;49.976;20.182;2023-03-16T05:25:09;10.25;;;5.18;;
75021;SDS011;63583;49.976;20.182;2023-03-16T05:27:46;9.93;;;5.05;;
75021;SDS011;63583;49.976;20.182;2023-03-16T05:30:14;14.48;;;5.97;;
75021;SDS011;63583;49.976;20.182;2023-03-16T05:32:40;11.35;;;6.57;;
75021;SDS011;63583;49.976;20.182;2023-03-16T05:35:07;13.52;;;7.05;;
75021;SDS011;63583;49.976;20.182;2023-03-16T05:37:34;8.25;;;5.78;;
75021;SDS011;63583;49.976;20.182;2023-03-16T05:40:05;10.48;;;5.38;;
75021;SDS011;63583;49.976;20.182;2023-03-16T05:42:41;11.45;;;4.30;;
75021;SDS011;63583;49.976;20.182;2023-03-16T05:45:08;10.98;;;5.75;;
75021;SDS011;63583;49.976;20.182;2023-03-16T05:47:34;8.10;;;4.95;;
75021;SDS011;63583;49.976;20.182;2023-03-16T05:50:02;11.93;;;5.60;;
75021;SDS011;63583;49.976;20.182;2023-03-16T05:52:29;8.20;;;4.43;;
75021;SDS011;63583;49.976;20.182;2023-03-16T05:54:55;9.07;;;5.53;;
75021;SDS011;63583;49.976;20.182;2023-03-16T05:57:20;6.35;;;3.60;;
75021;SDS011;63583;49.976;20.182;2023-03-16T05:59:46;18.05;;;6.43;;
75021;SDS011;63583;49.976;20.182;2023-03-16T06:02:12;12.70;;;4.97;;
75021;SDS011;63583;49.976;20.182;2023-03-16T06:04:38;15.13;;;5.55;;
75021;SDS011;63583;49.976;20.182;2023-03-16T06:07:04;9.60;;;5.25;;
75021;SDS011;63583;49.976;20.182;2023-03-16T06:09:29;14.27;;;4.78;;
75021;SDS011;63583;49.976;20.182;2023-03-16T06:11:55;11.15;;;4.85;;
75021;SDS011;63583;49.976;20.182;2023-03-16T06:14:21;13.55;;;5.70;;
75021;SDS011;63583;49.976;20.182;2023-03-16T06:16:48;8.55;;;4.10;;
75021;SDS011;63583;49.976;20.182;2023-03-16T06:19:13;8.15;;;4.15;;
75021;SDS011;63583;49.976;20.182;2023-03-16T06:21:39;6.80;;;4.30;;
75021;SDS011;63583;49.976;20.182;2023-03-16T06:24:05;6.90;;;3.90;;
75021;SDS011;63583;49.976;20.182;2023-03-16T06:26:33;8.40;;;4.82;;
75021;SDS011;63583;49.976;20.182;2023-03-16T06:29:00;5.97;;;3.40;;
75021;SDS011;63583;49.976;20.182;2023-03-16T06:31:25;12.80;;;5.88;;
75021;SDS011;63583;49.976;20.182;2023-03-16T06:33:51;9.27;;;5.00;;
75021;SDS011;63583;49.976;20.182;2023-03-16T06:36:16;13.85;;;4.47;;
75021;SDS011;63583;49.976;20.182;2023-03-16T06:38:43;9.68;;;3.75;;
75021;SDS011;63583;49.976;20.182;2023-03-16T06:41:09;10.52;;;4.53;;
75021;SDS011;63583;49.976;20.182;2023-03-16T06:43:35;6.30;;;3.60;;
75021;SDS011;63583;49.976;20.182;2023-03-16T06:46:01;10.02;;;4.80;;
75021;SDS011;63583;49.976;20.182;2023-03-16T06:48:28;9.70;;;5.55;;
75021;SDS011;63583;49.976;20.182;2023-03-16T06:50:54;12.48;;;6.30;;
75021;SDS011;63583;49.976;20.182;2023-03-16T06:53:20;15.85;;;5.40;;
75021;SDS011;63583;49.976;20.182;2023-03-16T06:55:46;9.40;;;4.15;;
75021;SDS011;63583;49.976;20.182;2023-03-16T06:58:12;9.43;;;3.88;;
75021;SDS011;63583;49.976;20.182;2023-03-16T07:00:38;11.15;;;5.35;;
75021;SDS011;63583;49.976;20.182;2023-03-16T07:03:04;10.18;;;5.78;;
75021;SDS011;63583;49.976;20.182;2023-03-16T07:05:29;10.25;;;4.68;;
75021;SDS011;63583;49.976;20.182;2023-03-16T07:07:56;9.52;;;4.75;;
75021;SDS011;63583;49.976;20.182;2023-03-16T07:10:22;11.80;;;5.47;;
75021;SDS011;63583;49.976;20.182;2023-03-16T07:12:51;9.68;;;4.50;;
75021;SDS011;63583;49.976;20.182;2023-03-16T07:15:17;8.32;;;4.22;;
75021;SDS011;63583;49.976;20.182;2023-03-16T07:17:44;8.82;;;4.22;;
75021;SDS011;63583;49.976;20.182;2023-03-16T07:20:10;11.48;;;4.57;;
75021;SDS011;63583;49.976;20.182;2023-03-16T07:22:37;11.27;;;5.07;;
75021;SDS011;63583;49.976;20.182;2023-03-16T07:25:04;8.13;;;3.88;;
75021;SDS011;63583;49.976;20.182;2023-03-16T07:27:36;11.30;;;4.35;;
75021;SDS011;63583;49.976;20.182;2023-03-16T07:30:03;11.98;;;5.18;;
75021;SDS011;63583;49.976;20.182;2023-03-16T07:32:31;14.95;;;4.35;;
75021;SDS011;63583;49.976;20.182;2023-03-16T07:34:57;12.63;;;5.30;;
75021;SDS011;63583;49.976;20.182;2023-03-16T07:37:24;7.43;;;4.95;;
75021;SDS011;63583;49.976;20.182;2023-03-16T07:39:51;14.35;;;5.95;;
75021;SDS011;63583;49.976;20.182;2023-03-16T07:42:18;14.45;;;5.72;;
75021;SDS011;63583;49.976;20.182;2023-03-16T07:44:44;14.80;;;6.80;;
75021;SDS011;63583;49.976;20.182;2023-03-16T07:47:11;10.00;;;5.82;;
75021;SDS011;63583;49.976;20.182;2023-03-16T07:49:38;7.72;;;4.30;;
75021;SDS011;63583;49.976;20.182;2023-03-16T07:52:06;16.42;;;6.50;;
75021;SDS011;63583;49.976;20.182;2023-03-16T07:54:32;15.40;;;5.85;;
75021;SDS011;63583;49.976;20.182;2023-03-16T07:57:01;11.35;;;5.00;;
75021;SDS011;63583;49.976;20.182;2023-03-16T07:59:28;13.25;;;3.80;;
75021;SDS011;63583;49.976;20.182;2023-03-16T08:02:00;12.93;;;5.45;;
75021;SDS011;63583;49.976;20.182;2023-03-16T08:04:26;10.43;;;4.53;;
75021;SDS011;63583;49.976;20.182;2023-03-16T08:06:52;18.20;;;5.65;;
75021;SDS011;63583;49.976;20.182;2023-03-16T08:09:25;9.15;;;4.53;;
75021;SDS011;63583;49.976;20.182;2023-03-16T08:11:52;14.55;;;6.85;;
75021;SDS011;63583;49.976;20.182;2023-03-16T08:14:18;9.60;;;5.13;;
75021;SDS011;63583;49.976;20.182;2023-03-16T08:16:44;11.32;;;5.43;;
75021;SDS011;63583;49.976;20.182;2023-03-16T08:19:11;11.20;;;5.30;;
75021;SDS011;63583;49.976;20.182;2023-03-16T08:21:38;13.05;;;4.95;;
75021;SDS011;63583;49.976;20.182;2023-03-16T08:24:07;9.23;;;4.65;;
75021;SDS011;63583;49.976;20.182;2023-03-16T08:26:33;15.35;;;5.00;;
75021;SDS011;63583;49.976;20.182;2023-03-16T08:29:00;12.60;;;4.57;;
75021;SDS011;63583;49.976;20.182;2023-03-16T08:31:27;9.63;;;5.43;;
75021;SDS011;63583;49.976;20.182;2023-03-16T08:33:55;19.88;;;6.43;;
75021;SDS011;63583;49.976;20.182;2023-03-16T08:36:22;7.07;;;3.60;;
75021;SDS011;63583;49.976;20.182;2023-03-16T08:38:48;10.15;;;4.28;;
75021;SDS011;63583;49.976;20.182;2023-03-16T08:41:17;9.93;;;4.57;;
75021;SDS011;63583;49.976;20.182;2023-03-16T08:43:43;12.38;;;5.15;;
75021;SDS011;63583;49.976;20.182;2023-03-16T08:46:10;12.45;;;5.32;;
75021;SDS011;63583;49.976;20.182;2023-03-16T08:48:39;11.15;;;5.63;;
75021;SDS011;63583;49.976;20.182;2023-03-16T08:51:06;11.43;;;4.95;;
75021;SDS011;63583;49.976;20.182;2023-03-16T08:53:33;9.23;;;3.63;;
75021;SDS011;63583;49.976;20.182;2023-03-16T08:56:02;12.18;;;4.35;;
75021;SDS011;63583;49.976;20.182;2023-03-16T09:00:57;8.63;;;5.07;;
75021;SDS011;63583;49.976;20.182;2023-03-16T09:03:27;8.52;;;4.20;;
75021;SDS011;63583;49.976;20.182;2023-03-16T09:05:59;9.98;;;4.82;;
75021;SDS011;63583;49.976;20.182;2023-03-16T09:08:26;8.45;;;3.65;;
75021;SDS011;63583;49.976;20.182;2023-03-16T09:10:59;6.97;;;3.80;;
75021;SDS011;63583;49.976;20.182;2023-03-16T09:13:26;6.85;;;3.40;;
75021;SDS011;63583;49.976;20.182;2023-03-16T09:15:55;10.57;;;4.50;;
75021;SDS011;63583;49.976;20.182;2023-03-16T09:18:21;10.93;;;5.55;;
75021;SDS011;63583;49.976;20.182;2023-03-16T09:20:58;6.50;;;3.95;;
75021;SDS011;63583;49.976;20.182;2023-03-16T09:23:26;8.88;;;4.32;;
75021;SDS011;63583;49.976;20.182;2023-03-16T09:25:56;13.18;;;4.97;;
75021;SDS011;63583;49.976;20.182;2023-03-16T09:28:24;8.68;;;3.90;;
75021;SDS011;63583;49.976;20.182;2023-03-16T09:30:52;7.68;;;3.75;;
75021;SDS011;63583;49.976;20.182;2023-03-16T09:33:22;11.43;;;3.83;;
75021;SDS011;63583;49.976;20.182;2023-03-16T09:35:50;7.70;;;3.15;;
75021;SDS011;63583;49.976;20.182;2023-03-16T09:38:18;7.00;;;2.97;;
75021;SDS011;63583;49.976;20.182;2023-03-16T09:40:45;10.85;;;3.85;;
75021;SDS011;63583;49.976;20.182;2023-03-16T09:43:23;10.25;;;4.72;;
75021;SDS011;63583;49.976;20.182;2023-03-16T09:51:04;6.90;;;3.58;;
75021;SDS011;63583;49.976;20.182;2023-03-16T09:53:33;6.47;;;2.90;;
75021;SDS011;63583;49.976;20.182;2023-03-16T09:56:21;8.35;;;3.42;;
75021;SDS011;63583;49.976;20.182;2023-03-16T09:58:55;7.20;;;2.92;;
75021;SDS011;63583;49.976;20.182;2023-03-16T10:06:57;8.38;;;2.65;;
75021;SDS011;63583;49.976;20.182;2023-03-16T10:12:51;9.13;;;4.65;;
75021;SDS011;63583;49.976;20.182;2023-03-16T10:15:19;9.40;;;3.42;;
75021;SDS011;63583;49.976;20.182;2023-03-16T10:20:49;7.75;;;3.30;;
75021;SDS011;63583;49.976;20.182;2023-03-16T10:23:22;6.07;;;3.20;;
75021;SDS011;63583;49.976;20.182;2023-03-16T10:25:50;7.90;;;2.75;;
75021;SDS011;63583;49.976;20.182;2023-03-16T10:28:19;7.10;;;3.05;;
75021;SDS011;63583;49.976;20.182;2023-03-16T10:30:48;6.22;;;2.00;;
75021;SDS011;63583;49.976;20.182;2023-03-16T10:33:23;4.32;;;2.20;;
75021;SDS011;63583;49.976;20.182;2023-03-16T10:38:40;6.93;;;2.80;;
75021;SDS011;63583;49.976;20.182;2023-03-16T10:41:31;7.70;;;2.88;;
75021;SDS011;63583;49.976;20.182;2023-03-16T10:44:12;4.45;;;2.78;;
75021;SDS011;63583;49.976;20.182;2023-03-16T10:46:57;5.40;;;2.75;;
75021;SDS011;63583;49.976;20.182;2023-03-16T10:49:43;5.45;;;2.28;;
75021;SDS011;63583;49.976;20.182;2023-03-16T10:52:22;3.97;;;1.83;;
75021;SDS011;63583;49.976;20.182;2023-03-16T10:54:54;5.20;;;2.72;;
75021;SDS011;63583;49.976;20.182;2023-03-16T10:57:23;5.93;;;2.75;;
75021;SDS011;63583;49.976;20.182;2023-03-16T10:59:53;5.07;;;3.03;;
75021;SDS011;63583;49.976;20.182;2023-03-16T11:02:23;7.38;;;2.55;;
75021;SDS011;63583;49.976;20.182;2023-03-16T11:07:49;6.35;;;2.30;;
75021;SDS011;63583;49.976;20.182;2023-03-16T11:13:17;6.63;;;1.95;;
75021;SDS011;63583;49.976;20.182;2023-03-16T11:15:58;4.10;;;2.38;;
75021;SDS011;63583;49.976;20.182;2023-03-16T11:18:36;5.72;;;2.90;;
75021;SDS011;63583;49.976;20.182;2023-03-16T11:21:12;9.82;;;3.42;;
75021;SDS011;63583;49.976;20.182;2023-03-16T11:23:46;7.35;;;2.58;;
75021;SDS011;63583;49.976;20.182;2023-03-16T11:32:03;4.25;;;1.70;;
75021;SDS011;63583;49.976;20.182;2023-03-16T11:34:31;5.63;;;1.52;;
75021;SDS011;63583;49.976;20.182;2023-03-16T11:45:00;5.72;;;1.90;;
75021;SDS011;63583;49.976;20.182;2023-03-16T11:48:13;5.03;;;2.00;;
75021;SDS011;63583;49.976;20.182;2023-03-16T11:50:57;4.30;;;2.17;;
75021;SDS011;63583;49.976;20.182;2023-03-16T11:53:38;2.72;;;1.50;;
75021;SDS011;63583;49.976;20.182;2023-03-16T12:10:33;3.53;;;1.75;;
75021;SDS011;63583;49.976;20.182;2023-03-16T12:13:18;3.95;;;2.15;;
75021;SDS011;63583;49.976;20.182;2023-03-16T12:21:30;3.20;;;2.05;;
75021;SDS011;63583;49.976;20.182;2023-03-16T12:24:01;7.50;;;2.85;;
75021;SDS011;63583;49.976;20.182;2023-03-16T12:26:34;6.53;;;2.58;;
75021;SDS011;63583;49.976;20.182;2023-03-16T12:31:47;6.00;;;2.70;;
75021;SDS011;63583;49.976;20.182;2023-03-16T12:34:23;5.78;;;2.28;;
75021;SDS011;63583;49.976;20.182;2023-03-16T12:42:42;10.15;;;3.50;;
75021;SDS011;63583;49.976;20.182;2023-03-16T12:50:47;6.50;;;3.42;;
75021;SDS011;63583;49.976;20.182;2023-03-16T12:55:55;5.25;;;2.10;;
75021;SDS011;63583;49.976;20.182;2023-03-16T12:58:24;9.90;;;4.35;;
75021;SDS011;63583;49.976;20.182;2023-03-16T13:00:57;7.28;;;3.72;;
75021;SDS011;63583;49.976;20.182;2023-03-16T13:03:25;4.57;;;2.00;;
75021;SDS011;63583;49.976;20.182;2023-03-16T13:05:55;4.13;;;2.10;;
75021;SDS011;63583;49.976;20.182;2023-03-16T13:08:26;3.92;;;2.00;;
75021;SDS011;63583;49.976;20.182;2023-03-16T13:11:00;5.18;;;2.72;;
75021;SDS011;63583;49.976;20.182;2023-03-16T13:13:32;2.08;;;1.52;;
75021;SDS011;63583;49.976;20.182;2023-03-16T13:16:02;3.78;;;2.00;;
75021;SDS011;63583;49.976;20.182;2023-03-16T13:21:12;6.38;;;2.67;;
75021;SDS011;63583;49.976;20.182;2023-03-16T13:23:54;4.93;;;2.58;;
75021;SDS011;63583;49.976;20.182;2023-03-16T13:26:38;5.00;;;2.03;;
75021;SDS011;63583;49.976;20.182;2023-03-16T13:29:19;3.80;;;1.70;;
75021;SDS011;63583;49.976;20.182;2023-03-16T13:31:54;2.78;;;1.73;;
75021;SDS011;63583;49.976;20.182;2023-03-16T13:34:29;5.07;;;2.17;;
75021;SDS011;63583;49.976;20.182;2023-03-16T13:36:57;3.83;;;1.83;;
75021;SDS011;63583;49.976;20.182;2023-03-16T13:39:25;4.70;;;1.83;;
75021;SDS011;63583;49.976;20.182;2023-03-16T13:44:27;3.55;;;1.77;;
75021;SDS011;63583;49.976;20.182;2023-03-16T13:46:54;4.25;;;2.00;;
75021;SDS011;63583;49.976;20.182;2023-03-16T13:49:22;7.43;;;2.50;;
75021;SDS011;63583;49.976;20.182;2023-03-16T13:51:49;4.57;;;1.70;;
75021;SDS011;63583;49.976;20.182;2023-03-16T13:56:54;5.53;;;1.52;;
75021;SDS011;63583;49.976;20.182;2023-03-16T13:59:28;4.85;;;1.75;;
75021;SDS011;63583;49.976;20.182;2023-03-16T14:01:55;2.90;;;1.55;;
75021;SDS011;63583;49.976;20.182;2023-03-16T14:04:24;3.35;;;1.25;;
75021;SDS011;63583;49.976;20.182;2023-03-16T14:06:59;3.60;;;1.30;;
75021;SDS011;63583;49.976;20.182;2023-03-16T14:09:37;2.85;;;1.48;;
75021;SDS011;63583;49.976;20.182;2023-03-16T14:12:02;2.08;;;1.05;;
75021;SDS011;63583;49.976;20.182;2023-03-16T14:14:29;3.95;;;1.80;;
75021;SDS011;63583;49.976;20.182;2023-03-16T14:17:13;3.58;;;2.00;;
75021;SDS011;63583;49.976;20.182;2023-03-16T14:19:44;4.90;;;2.58;;
75021;SDS011;63583;49.976;20.182;2023-03-16T14:22:12;6.22;;;2.70;;
75021;SDS011;63583;49.976;20.182;2023-03-16T14:24:42;4.05;;;2.20;;
75021;SDS011;63583;49.976;20.182;2023-03-16T14:29:42;3.25;;;1.88;;
75021;SDS011;63583;49.976;20.182;2023-03-16T14:32:19;4.82;;;1.95;;
75021;SDS011;63583;49.976;20.182;2023-03-16T14:34:50;3.55;;;1.40;;
75021;SDS011;63583;49.976;20.182;2023-03-16T14:37:16;5.13;;;2.03;;
75021;SDS011;63583;49.976;20.182;2023-03-16T14:39:56;4.38;;;1.63;;
75021;SDS011;63583;49.976;20.182;2023-03-16T14:42:26;6.53;;;2.17;;
75021;SDS011;63583;49.976;20.182;2023-03-16T14:44:54;4.70;;;2.15;;
75021;SDS011;63583;49.976;20.182;2023-03-16T14:47:25;6.05;;;2.33;;
75021;SDS011;63583;49.976;20.182;2023-03-16T14:49:53;3.25;;;1.90;;
75021;SDS011;63583;49.976;20.182;2023-03-16T14:52:23;4.78;;;1.98;;
75021;SDS011;63583;49.976;20.182;2023-03-16T14:54:51;4.03;;;2.15;;
75021;SDS011;63583;49.976;20.182;2023-03-16T14:57:19;7.10;;;1.83;;
75021;SDS011;63583;49.976;20.182;2023-03-16T14:59:46;3.88;;;1.77;;
75021;SDS011;63583;49.976;20.182;2023-03-16T15:02:22;5.97;;;1.92;;
75021;SDS011;63583;49.976;20.182;2023-03-16T15:04:52;5.80;;;2.15;;
75021;SDS011;63583;49.976;20.182;2023-03-16T15:09:53;6.03;;;1.88;;
75021;SDS011;63583;49.976;20.182;2023-03-16T15:12:21;4.35;;;2.20;;
75021;SDS011;63583;49.976;20.182;2023-03-16T15:14:49;4.10;;;2.50;;
75021;SDS011;63583;49.976;20.182;2023-03-16T15:17:33;6.22;;;2.63;;
75021;SDS011;63583;49.976;20.182;2023-03-16T15:19:59;3.75;;;1.30;;
75021;SDS011;63583;49.976;20.182;2023-03-16T15:22:29;4.70;;;1.60;;
75021;SDS011;63583;49.976;20.182;2023-03-16T15:24:56;2.92;;;1.52;;
75021;SDS011;63583;49.976;20.182;2023-03-16T15:27:26;2.55;;;1.38;;
75021;SDS011;63583;49.976;20.182;2023-03-16T15:29:56;2.90;;;1.77;;
75021;SDS011;63583;49.976;20.182;2023-03-16T15:32:22;4.82;;;1.83;;
75021;SDS011;63583;49.976;20.182;2023-03-16T15:34:47;2.83;;;1.30;;
75021;SDS011;63583;49.976;20.182;2023-03-16T15:37:14;1.83;;;1.25;;
75021;SDS011;63583;49.976;20.182;2023-03-16T15:39:42;2.10;;;1.30;;
75021;SDS011;63583;49.976;20.182;2023-03-16T15:42:18;3.13;;;1.55;;
75021;SDS011;63583;49.976;20.182;2023-03-16T15:44:44;3.33;;;1.38;;
75021;SDS011;63583;49.976;20.182;2023-03-16T15:47:10;4.53;;;1.42;;
75021;SDS011;63583;49.976;20.182;2023-03-16T15:49:37;2.88;;;1.60;;
75021;SDS011;63583;49.976;20.182;2023-03-16T15:52:03;6.72;;;1.67;;
75021;SDS011;63583;49.976;20.182;2023-03-16T15:54:32;3.75;;;1.60;;
75021;SDS011;63583;49.976;20.182;2023-03-16T15:56:58;3.65;;;1.60;;
75021;SDS011;63583;49.976;20.182;2023-03-16T15:59:25;2.30;;;1.48;;
75021;SDS011;63583;49.976;20.182;2023-03-16T16:01:55;3.75;;;2.08;;
75021;SDS011;63583;49.976;20.182;2023-03-16T16:04:21;4.55;;;1.75;;
75021;SDS011;63583;49.976;20.182;2023-03-16T16:06:48;4.18;;;1.70;;
75021;SDS011;63583;49.976;20.182;2023-03-16T16:09:16;2.28;;;1.70;;
75021;SDS011;63583;49.976;20.182;2023-03-16T16:11:41;5.07;;;2.35;;
75021;SDS011;63583;49.976;20.182;2023-03-16T16:14:14;4.63;;;2.35;;
75021;SDS011;63583;49.976;20.182;2023-03-16T16:16:41;4.80;;;2.75;;
75021;SDS011;63583;49.976;20.182;2023-03-16T16:19:11;6.28;;;2.70;;
75021;SDS011;63583;49.976;20.182;2023-03-16T16:21:38;6.18;;;3.03;;
75021;SDS011;63583;49.976;20.182;2023-03-16T16:24:04;5.05;;;2.70;;
75021;SDS011;63583;49.976;20.182;2023-03-16T16:26:34;9.88;;;2.67;;
75021;SDS011;63583;49.976;20.182;2023-03-16T16:29:09;3.50;;;2.20;;
75021;SDS011;63583;49.976;20.182;2023-03-16T16:31:37;3.88;;;2.15;;
75021;SDS011;63583;49.976;20.182;2023-03-16T16:34:02;4.10;;;1.85;;